Airfield :
LOGIN :

Register | Disclaimer

   EN    FR    IT 

 










Legend :    VFR   Marginal VFR   IFR   Intensive IFR   Very Intensive IFR
Visi :
Ceiling :
>= 8 km
>= 3000ft
5 to 8 km
1000 to 3000 ft
1500m to 5 km
500 to 1000 ft
800 to 1500m
200 to 500 ft
< 800m
< 200 ft
Symbols :   Thunderstorms  Fog  Heavy snow  Heavy precipitations  Wind > 20 kt
SIGMETs :     Misc.  Thunderstorms  Icing  Turbulence  Mountain Waves  Volcanic Ashes






- Airport Elevation : 14 ft
- IATA code : URE


EEKE - Kuressaare

CURRENT METAR :
  • 081050Z 16006KT CAVOK 23/17 Q1025

EXPIRED METARs :
  • 080950Z 18003KT CAVOK 24/18 Q1025
  • 080850Z 17004KT 130V230 CAVOK 24/17 Q1025
  • 080750Z 17004KT CAVOK 23/17 Q1026

TAF TAF EEKE
Valid from the 08 at 08:00 until the 08 at 14:00 UTC


080700Z 0808/0814 16008KT CAVOK



MET'MAP, your aeronautical weather chart ! - Copyright ORBIFLY December 2007 - Disclaimer

ORBIFLY MET'MAP TEAM :

Programming & Development : Alexandra Zaïnal
Concept & original design : Baudouin d'Aumeries
Assistance for programming : Marc-Olivier Méhu
Technical & hardware support : Manuel Goepfert

Contact : metmap@orbifly.com




SOURCES & CREDITS :

   NOAA